createdAt,value
2022-07-27T00:02:11.052Z,0.20
2022-07-27T00:04:41.783Z,0.10
2022-07-27T00:07:12.478Z,0.50
2022-07-27T00:09:42.820Z,0.20
2022-07-27T00:12:13.230Z,0.20
2022-07-27T00:14:44.901Z,0.20
2022-07-27T00:17:15.678Z,0.38
2022-07-27T00:19:46.339Z,0.15
2022-07-27T00:22:16.693Z,0.20
2022-07-27T00:24:47.735Z,0.20
2022-07-27T00:27:18.276Z,0.30
2022-07-27T00:29:48.591Z,0.20
2022-07-27T00:32:19.344Z,0.90
2022-07-27T00:34:50.676Z,0.45
2022-07-27T00:37:20.949Z,0.20
2022-07-27T00:39:51.204Z,0.28
2022-07-27T00:42:31.005Z,0.17
2022-07-27T00:45:01.398Z,0.55
2022-07-27T00:47:32.103Z,0.30
2022-07-27T00:50:02.766Z,0.30
2022-07-27T00:52:33.604Z,0.35
2022-07-27T00:55:04.353Z,0.20
2022-07-27T00:57:57.874Z,0.30
2022-07-27T01:00:26.231Z,0.30
2022-07-27T01:02:57.907Z,0.10
2022-07-27T01:05:35.984Z,0.73
2022-07-27T01:08:30.380Z,0.30
2022-07-27T01:11:04.709Z,0.20
2022-07-27T01:13:39.741Z,0.30
2022-07-27T01:16:11.778Z,0.75
2022-07-27T01:18:45.011Z,0.60
2022-07-27T01:21:17.869Z,0.30
2022-07-27T01:23:48.217Z,0.20
2022-07-27T01:26:18.674Z,0.35
2022-07-27T01:28:50.516Z,0.20
2022-07-27T01:31:25.746Z,0.10
2022-07-27T01:33:56.618Z,0.25
2022-07-27T01:36:27.034Z,0.20
2022-07-27T01:38:58.892Z,0.10
2022-07-27T01:41:29.341Z,0.10
2022-07-27T01:44:00.039Z,0.20
2022-07-27T01:46:30.311Z,0.30
2022-07-27T01:49:03.810Z,0.65
2022-07-27T01:51:41.145Z,0.52
2022-07-27T01:54:11.792Z,0.22
2022-07-27T01:56:44.895Z,0.20
2022-07-27T01:59:17.108Z,0.30
2022-07-27T02:01:54.143Z,0.30
2022-07-27T02:04:26.553Z,0.25
2022-07-27T02:06:56.742Z,0.28
2022-07-27T02:09:27.860Z,0.10
2022-07-27T02:15:05.507Z,0.35
2022-07-27T02:17:37.863Z,0.50
2022-07-27T02:20:11.229Z,0.57
2022-07-27T02:22:41.530Z,0.47
2022-07-27T02:25:13.598Z,0.50
2022-07-27T02:27:44.958Z,0.55
2022-07-27T02:30:17.615Z,0.52
2022-07-27T02:32:48.407Z,0.50
2022-07-27T02:35:20.576Z,0.30
2022-07-27T02:37:52.649Z,0.30
2022-07-27T02:40:23.109Z,0.40
2022-07-27T02:42:53.427Z,1.08
2022-07-27T02:45:24.438Z,0.85
2022-07-27T02:47:55.186Z,0.55
2022-07-27T02:50:25.640Z,0.47
2022-07-27T02:52:55.925Z,0.32
2022-07-27T02:55:26.199Z,0.57
2022-07-27T02:57:56.541Z,0.70
2022-07-27T03:00:27.388Z,0.40
2022-07-27T03:02:58.273Z,0.32
2022-07-27T03:05:29.327Z,0.45
2022-07-27T03:07:59.582Z,0.60
2022-07-27T03:10:30.059Z,0.73
2022-07-27T03:13:00.645Z,0.60
2022-07-27T03:15:31.393Z,0.52
2022-07-27T03:18:02.180Z,0.50
2022-07-27T03:20:32.516Z,0.40
2022-07-27T03:23:02.794Z,0.60
2022-07-27T03:25:34.516Z,0.50
2022-07-27T03:28:05.393Z,0.60
2022-07-27T03:30:37.397Z,0.60
2022-07-27T03:33:08.608Z,0.40
2022-07-27T03:35:39.064Z,0.40
2022-07-27T03:38:11.440Z,0.38
2022-07-27T03:40:43.518Z,0.47
2022-07-27T03:43:15.931Z,0.60
2022-07-27T03:45:46.926Z,0.40
2022-07-27T03:48:17.184Z,1.17
2022-07-27T03:50:47.463Z,0.75
2022-07-27T03:53:19.449Z,0.32
2022-07-27T03:55:52.690Z,0.20
2022-07-27T03:58:24.979Z,0.30
2022-07-27T04:00:55.390Z,0.70
2022-07-27T04:03:25.764Z,0.40
2022-07-27T04:05:56.067Z,0.30
2022-07-27T04:08:32.419Z,0.55
2022-07-27T04:11:03.022Z,0.50
2022-07-27T04:13:33.708Z,0.60
2022-07-27T04:16:06.743Z,0.15
2022-07-27T04:18:37.320Z,0.20
2022-07-27T04:21:08.162Z,0.30
2022-07-27T04:23:38.638Z,0.63
2022-07-27T04:26:09.630Z,0.65
2022-07-27T04:28:42.616Z,1.00
2022-07-27T04:31:13.344Z,1.60
2022-07-27T04:33:44.926Z,1.83
2022-07-27T04:36:15.578Z,1.17
2022-07-27T04:38:48.829Z,1.05
2022-07-27T04:41:22.982Z,0.63
2022-07-27T04:44:01.652Z,1.13
2022-07-27T04:46:32.521Z,1.17
2022-07-27T04:49:04.408Z,0.68
2022-07-27T04:51:34.920Z,0.88
2022-07-27T04:54:05.843Z,1.17
2022-07-27T04:56:36.333Z,0.60
2022-07-27T04:59:07.010Z,0.50
2022-07-27T05:01:37.499Z,0.63
2022-07-27T05:04:11.615Z,0.95
2022-07-27T05:06:43.682Z,1.17
2022-07-27T05:09:14.133Z,0.90
2022-07-27T05:11:51.118Z,1.75
2022-07-27T05:14:23.280Z,0.60
2022-07-27T05:16:53.727Z,0.60
2022-07-27T05:19:40.697Z,0.98
2022-07-27T05:22:12.454Z,0.57
2022-07-27T05:24:43.740Z,0.60
2022-07-27T05:27:14.111Z,0.50
2022-07-27T05:29:44.460Z,0.52
2022-07-27T05:32:15.058Z,0.73
2022-07-27T05:34:47.729Z,0.65
2022-07-27T05:37:18.502Z,0.70
2022-07-27T05:39:48.914Z,1.00
2022-07-27T05:42:19.232Z,0.47
2022-07-27T05:44:49.577Z,0.90
2022-07-27T05:47:20.035Z,0.77
2022-07-27T05:49:50.548Z,0.50
2022-07-27T05:52:22.252Z,0.80
2022-07-27T05:54:52.619Z,0.50
2022-07-27T05:57:23.446Z,0.50
2022-07-27T05:59:56.709Z,0.70
2022-07-27T06:02:29.306Z,0.63
2022-07-27T06:05:00.064Z,0.40
2022-07-27T06:07:49.991Z,0.50
2022-07-27T06:10:21.113Z,0.70
2022-07-27T06:12:51.371Z,0.60
2022-07-27T06:15:21.684Z,0.90
2022-07-27T06:17:54.389Z,0.35
2022-07-27T06:20:26.227Z,0.75
2022-07-27T06:23:01.808Z,0.50
2022-07-27T06:25:38.678Z,0.30
2022-07-27T06:28:09.129Z,0.82
2022-07-27T06:30:40.126Z,0.80
2022-07-27T06:33:14.372Z,1.05
2022-07-27T06:35:45.357Z,0.50
2022-07-27T06:38:20.013Z,1.42
2022-07-27T06:40:54.443Z,0.57
2022-07-27T06:43:27.747Z,0.80
2022-07-27T06:46:00.241Z,0.52
2022-07-27T06:48:30.959Z,0.70
2022-07-27T06:51:03.087Z,0.57
2022-07-27T06:53:37.296Z,0.50
2022-07-27T06:56:11.498Z,0.93
2022-07-27T06:58:43.041Z,0.32
2022-07-27T07:01:13.355Z,0.32
2022-07-27T07:03:44.099Z,0.40
2022-07-27T07:06:14.432Z,0.22
2022-07-27T07:08:44.760Z,0.50
2022-07-27T07:11:15.768Z,0.43
2022-07-27T07:14:40.849Z,0.63
2022-07-27T07:17:11.141Z,0.65
2022-07-27T07:19:41.558Z,0.82
2022-07-27T07:22:11.874Z,0.75
2022-07-27T07:24:42.104Z,0.70
2022-07-27T07:27:12.325Z,0.65
2022-07-27T07:29:42.627Z,0.63
2022-07-27T07:32:13.180Z,0.60
2022-07-27T07:34:45.870Z,0.60
2022-07-27T07:37:16.175Z,0.82
2022-07-27T07:39:47.515Z,0.40
2022-07-27T07:42:18.269Z,0.70
2022-07-27T07:44:48.554Z,0.60
2022-07-27T07:47:18.882Z,1.02
2022-07-27T07:49:49.166Z,0.70
2022-07-27T07:52:20.097Z,1.25
2022-07-27T07:54:54.630Z,0.73
2022-07-27T07:57:26.502Z,0.70
2022-07-27T07:59:56.840Z,1.02
2022-07-27T08:02:28.343Z,0.95
2022-07-27T08:05:00.171Z,4.47
2022-07-27T08:07:30.449Z,5.88
2022-07-27T08:10:00.822Z,3.65
2022-07-27T08:12:31.215Z,4.18
2022-07-27T08:15:01.470Z,2.17
2022-07-27T08:17:32.542Z,0.98
2022-07-27T08:20:03.040Z,0.93
2022-07-27T08:22:33.430Z,0.85
2022-07-27T08:25:04.999Z,0.70
2022-07-27T08:27:40.153Z,1.25
2022-07-27T08:30:13.207Z,1.63
2022-07-27T08:32:56.585Z,0.90
2022-07-27T08:35:43.065Z,1.13
2022-07-27T08:38:29.034Z,1.23
2022-07-27T08:41:00.023Z,1.10
2022-07-27T08:43:31.802Z,0.80
2022-07-27T08:46:07.628Z,1.00
2022-07-27T08:48:40.357Z,1.05
2022-07-27T08:54:01.896Z,1.55
2022-07-27T08:56:32.609Z,1.27
2022-07-27T08:59:02.981Z,1.05
2022-07-27T09:01:39.917Z,1.00
2022-07-27T09:06:54.889Z,1.00
2022-07-27T09:09:25.526Z,0.93
2022-07-27T09:12:14.425Z,1.25
2022-07-27T09:14:52.687Z,1.08
2022-07-27T09:17:49.992Z,0.77
2022-07-27T09:20:25.632Z,1.05
2022-07-27T09:23:10.192Z,1.20
2022-07-27T09:28:35.859Z,0.93
2022-07-27T09:34:15.571Z,2.20
2022-07-27T09:37:11.503Z,0.70
2022-07-27T09:39:45.123Z,0.50
2022-07-27T09:45:42.034Z,1.00
2022-07-27T09:48:56.282Z,0.40
2022-07-27T09:51:58.845Z,0.55
2022-07-27T09:54:53.619Z,0.77
2022-07-27T09:57:25.042Z,0.47
2022-07-27T10:00:18.153Z,0.50
2022-07-27T10:03:00.589Z,1.02
2022-07-27T10:05:38.440Z,0.57
2022-07-27T10:08:30.892Z,0.68
2022-07-27T10:11:01.377Z,0.80
2022-07-27T10:13:46.428Z,1.15
2022-07-27T10:16:24.110Z,1.63
2022-07-27T10:19:21.278Z,0.82
2022-07-27T10:21:55.139Z,1.00
2022-07-27T10:24:48.711Z,0.80
2022-07-27T10:27:46.628Z,1.67
2022-07-27T10:30:24.182Z,1.40
2022-07-27T10:33:01.934Z,1.35
2022-07-27T10:35:40.785Z,0.90
2022-07-27T10:38:25.318Z,2.35
2022-07-27T10:41:25.595Z,1.17
2022-07-27T10:44:21.725Z,0.77
2022-07-27T10:47:06.251Z,0.90
2022-07-27T10:49:40.669Z,0.80
2022-07-27T10:52:47.389Z,1.05
2022-07-27T10:55:33.153Z,0.98
2022-07-27T10:58:12.688Z,0.65
2022-07-27T11:00:55.091Z,0.70
2022-07-27T11:03:33.314Z,0.63
2022-07-27T11:06:31.451Z,0.60
2022-07-27T11:09:38.632Z,0.75
2022-07-27T11:11:52.182Z,0.93
2022-07-27T11:14:31.303Z,0.80
2022-07-27T11:17:39.950Z,1.15
2022-07-27T11:20:06.090Z,0.90
2022-07-27T11:25:32.119Z,1.45
2022-07-27T11:28:13.175Z,1.30
2022-07-27T11:30:44.598Z,2.17
2022-07-27T11:33:16.433Z,1.30
2022-07-27T11:36:04.607Z,1.38
2022-07-27T11:38:56.484Z,1.80
2022-07-27T11:42:04.748Z,1.10
2022-07-27T11:44:25.804Z,1.10
2022-07-27T11:47:01.964Z,5.43
2022-07-27T11:49:34.705Z,3.88
2022-07-27T11:52:10.549Z,3.50
2022-07-27T11:54:46.137Z,3.33
2022-07-27T11:57:23.426Z,1.38
2022-07-27T11:59:54.660Z,1.10
2022-07-27T12:02:28.139Z,0.98
2022-07-27T12:05:02.903Z,1.23
2022-07-27T12:07:35.960Z,1.42
2022-07-27T12:10:11.850Z,2.03
2022-07-27T12:12:42.583Z,1.80
2022-07-27T12:15:44.693Z,2.53
2022-07-27T12:18:14.945Z,2.47
2022-07-27T12:20:47.145Z,2.13
2022-07-27T12:23:17.895Z,1.88
2022-07-27T12:25:51.492Z,2.22
2022-07-27T12:28:27.381Z,2.03
2022-07-27T12:30:59.356Z,1.85
2022-07-27T12:33:32.145Z,1.40
2022-07-27T12:36:07.029Z,0.95
2022-07-27T12:38:51.158Z,0.90
2022-07-27T12:41:31.950Z,1.10
2022-07-27T12:47:27.334Z,0.77
2022-07-27T12:50:10.010Z,0.85
2022-07-27T12:52:46.697Z,0.82
2022-07-27T12:55:20.459Z,1.10
2022-07-27T12:57:56.693Z,0.90
2022-07-27T13:00:33.981Z,0.70
2022-07-27T13:03:06.190Z,0.57
2022-07-27T13:05:37.633Z,1.40
2022-07-27T13:08:09.938Z,0.63
2022-07-27T13:10:42.238Z,0.80
2022-07-27T13:13:12.978Z,0.47
2022-07-27T13:15:43.779Z,0.55
2022-07-27T13:18:22.866Z,0.60
2022-07-27T13:20:54.253Z,0.88
2022-07-27T13:23:24.976Z,1.23
2022-07-27T13:25:55.661Z,1.00
2022-07-27T13:28:26.116Z,1.27
2022-07-27T13:30:56.454Z,0.98
2022-07-27T13:33:26.694Z,1.95
2022-07-27T13:36:00.997Z,0.98
2022-07-27T13:38:35.222Z,1.33
2022-07-27T13:41:05.700Z,1.67
2022-07-27T13:43:36.561Z,0.95
2022-07-27T13:46:10.177Z,0.82
2022-07-27T13:48:40.612Z,0.98
2022-07-27T13:51:10.947Z,0.93
2022-07-27T13:53:41.200Z,0.80
2022-07-27T13:56:11.795Z,0.98
2022-07-27T13:58:43.233Z,1.02
2022-07-27T14:30:44.049Z,2.20
2022-07-27T14:36:57.550Z,2.03
2022-07-27T14:39:43.951Z,1.85
2022-07-27T14:54:37.502Z,1.50
2022-07-27T14:57:26.731Z,2.50
2022-07-27T14:59:57.563Z,4.80
2022-07-27T15:02:28.320Z,3.78
2022-07-27T15:04:58.921Z,1.00
2022-07-27T15:07:32.534Z,0.43
2022-07-27T15:10:04.098Z,1.50
2022-07-27T15:12:38.122Z,0.70
2022-07-27T15:15:14.596Z,0.60
2022-07-27T15:17:45.203Z,0.70
2022-07-27T15:20:15.605Z,0.80
2022-07-27T15:22:46.319Z,0.60
2022-07-27T15:25:16.654Z,0.80
2022-07-27T15:27:47.323Z,1.25
2022-07-27T15:30:18.191Z,0.60
2022-07-27T15:32:48.993Z,0.82
2022-07-27T15:35:19.318Z,0.60
2022-07-27T15:37:54.743Z,1.05
2022-07-27T15:40:44.267Z,0.68
2022-07-27T15:43:20.737Z,0.70
2022-07-27T15:45:52.903Z,0.73
2022-07-27T15:48:25.653Z,0.82
2022-07-27T15:51:03.659Z,0.60
2022-07-27T15:56:47.256Z,0.50
2022-07-27T15:59:27.435Z,0.50
2022-07-27T16:01:57.930Z,0.40
2022-07-27T16:04:28.907Z,0.57
2022-07-27T16:09:46.977Z,0.77
2022-07-27T16:12:18.149Z,1.70
2022-07-27T16:14:51.555Z,0.57
2022-07-27T16:17:23.009Z,0.80
2022-07-27T16:19:59.484Z,0.77
2022-07-27T16:22:31.135Z,0.60
2022-07-27T16:25:02.079Z,0.40
2022-07-27T16:27:32.418Z,0.57
2022-07-27T16:30:02.707Z,0.40
2022-07-27T16:32:33.966Z,0.50
2022-07-27T16:35:10.061Z,0.50
2022-07-27T16:37:40.900Z,0.40
2022-07-27T16:40:11.790Z,0.22
2022-07-27T16:42:42.038Z,0.50
2022-07-27T16:45:14.224Z,0.50
2022-07-27T16:47:45.487Z,0.50
2022-07-27T16:50:15.867Z,0.60
2022-07-27T16:52:46.840Z,0.47
2022-07-27T16:55:17.608Z,0.50
2022-07-27T16:57:47.902Z,0.30
2022-07-27T17:00:18.772Z,0.40
2022-07-27T17:02:51.811Z,0.50
2022-07-27T17:05:22.549Z,0.47
2022-07-27T17:07:54.046Z,0.45
2022-07-27T17:10:27.162Z,0.45
2022-07-27T17:13:00.070Z,0.40
2022-07-27T17:15:36.842Z,0.50
2022-07-27T17:18:10.680Z,0.50
2022-07-27T17:20:45.203Z,0.90
2022-07-27T17:23:25.450Z,0.40
2022-07-27T17:25:57.895Z,0.95
2022-07-27T18:48:15.694Z,0.50
2022-07-27T18:50:46.561Z,0.50
2022-07-27T18:53:16.815Z,0.30
2022-07-27T21:27:46.236Z,1.40
2022-07-27T22:26:38.548Z,1.20
2022-07-27T22:29:25.403Z,0.85
2022-07-27T22:31:55.679Z,0.60
2022-07-27T22:34:26.400Z,0.50
2022-07-27T22:36:56.973Z,0.30
2022-07-27T22:39:27.233Z,0.30
2022-07-27T22:41:57.640Z,0.50
2022-07-27T22:44:30.550Z,0.40
2022-07-27T22:47:00.905Z,0.38
2022-07-27T22:49:31.559Z,0.60
2022-07-27T22:52:01.883Z,0.20
2022-07-27T22:54:35.368Z,0.30
2022-07-27T22:57:06.420Z,0.50
2022-07-27T22:59:39.165Z,0.30
2022-07-27T23:02:12.391Z,0.45
2022-07-27T23:04:43.093Z,0.28
2022-07-27T23:07:17.407Z,0.30
2022-07-27T23:09:47.749Z,0.30
2022-07-27T23:12:19.146Z,0.50
2022-07-27T23:14:50.029Z,0.25
2022-07-27T23:17:20.421Z,0.30
2022-07-27T23:19:51.329Z,0.45
2022-07-27T23:22:22.905Z,0.35
2022-07-27T23:24:57.298Z,0.20
2022-07-27T23:27:27.588Z,0.25
2022-07-27T23:29:58.475Z,0.20
2022-07-27T23:32:28.866Z,0.52
2022-07-27T23:34:59.218Z,0.25
2022-07-27T23:37:29.474Z,0.50
2022-07-27T23:39:59.725Z,0.22
2022-07-27T23:42:33.281Z,0.10
2022-07-27T23:45:04.209Z,0.20
2022-07-27T23:47:35.054Z,0.03
2022-07-27T23:50:06.626Z,0.13
2022-07-27T23:52:38.867Z,0.28
2022-07-27T23:55:10.385Z,0.20
2022-07-27T23:57:41.140Z,0.10
